Time;durP1;ratioP1;P1;durP2;ratioP2;P2;SDS_P1;SDS_P2;PMS_P1;PMS_P2;Temp;Humidity;BMP_temperature;BMP_pressure;BME280_temperature;BME280_humidity;BME280_pressure;Samples;Min_cycle;Max_cycle;Signal;HPM_P1;HPM_P2
2022/03/29 00:03:26;;;;;;;8.97;6.70;;;;;;;6.99;52.79;96052.28;10329019;28;96970;-62
2022/03/29 00:08:29;;;;;;;9.65;6.50;;;;;;;7.00;53.55;96048.72;10343563;28;97011;-63
2022/03/29 00:13:34;;;;;;;8.98;6.20;;;;;;;6.96;53.84;96042.97;10331618;28;96738;-62
2022/03/29 00:18:36;;;;;;;10.23;6.20;;;;;;;7.08;53.62;96033.31;10314195;28;97188;-62
2022/03/29 00:23:39;;;;;;;11.88;7.35;;;;;;;7.03;54.36;96027.69;10325758;28;96891;-63
2022/03/29 00:35:08;;;;;;;10.68;6.85;;;;;;;6.84;54.79;96008.44;10325218;28;97366;-63
2022/03/29 00:40:13;;;;;;;11.60;7.57;;;;;;;6.85;54.53;95994.50;10330949;28;96974;-62
2022/03/29 00:45:16;;;;;;;13.50;7.22;;;;;;;6.93;54.71;95991.25;10331120;28;97657;-62
2022/03/29 00:50:20;;;;;;;9.32;6.60;;;;;;;6.89;54.64;95995.06;10351788;28;97212;-62
2022/03/29 00:55:23;;;;;;;10.52;7.25;;;;;;;6.97;54.87;95986.63;10319007;28;97034;-63
2022/03/29 01:00:27;;;;;;;10.75;7.63;;;;;;;6.81;54.84;95980.13;10317996;28;99196;-62
2022/03/29 01:05:31;;;;;;;10.35;6.88;;;;;;;6.78;55.47;95966.59;10331602;28;99331;-62
2022/03/29 01:10:34;;;;;;;7.20;6.20;;;;;;;6.71;55.57;95958.53;10334467;28;97082;-63
2022/03/29 01:15:38;;;;;;;9.45;5.97;;;;;;;6.68;55.99;95951.00;10333316;28;97093;-62
2022/03/29 01:20:44;;;;;;;10.52;6.78;;;;;;;6.59;55.68;95941.38;10334920;28;96727;-62
2022/03/29 01:25:51;;;;;;;11.65;6.55;;;;;;;6.56;56.01;95941.66;10329005;28;97924;-62
2022/03/29 01:30:55;;;;;;;11.88;6.85;;;;;;;6.52;55.82;95929.88;10330330;28;97117;-62
2022/03/29 01:35:58;;;;;;;10.45;7.05;;;;;;;6.57;56.30;95923.34;10322366;28;99975;-63
2022/03/29 01:41:05;;;;;;;10.88;7.15;;;;;;;6.34;57.46;95908.91;10330449;28;97080;-62
2022/03/29 01:46:12;;;;;;;10.88;7.00;;;;;;;6.33;57.44;95910.69;10328577;28;96910;-62
2022/03/29 01:51:15;;;;;;;10.38;6.93;;;;;;;6.28;57.12;95908.47;10328377;28;97088;-62
2022/03/29 01:56:20;;;;;;;11.75;7.22;;;;;;;6.36;56.95;95892.25;10333820;28;97050;-63
2022/03/29 02:01:23;;;;;;;8.05;6.32;;;;;;;6.37;56.95;95883.53;10327783;28;98951;-62
2022/03/29 02:06:26;;;;;;;9.80;6.68;;;;;;;6.44;56.27;95869.06;10327355;28;97236;-63
2022/03/29 02:11:30;;;;;;;8.90;6.22;;;;;;;6.43;55.79;95867.44;10325025;28;96854;-63
2022/03/29 02:16:34;;;;;;;9.07;7.00;;;;;;;6.34;56.78;95865.63;10327649;28;97740;-62
2022/03/29 02:21:37;;;;;;;10.15;6.60;;;;;;;6.31;56.63;95862.47;10308528;28;97173;-62
2022/03/29 02:26:41;;;;;;;10.50;6.78;;;;;;;6.28;56.79;95858.38;10328634;28;96853;-62
2022/03/29 02:31:44;;;;;;;9.98;6.85;;;;;;;6.27;56.61;95852.34;10324714;28;98633;-63
2022/03/29 02:36:47;;;;;;;11.95;7.78;;;;;;;6.11;57.53;95843.41;10325495;28;98521;-63
2022/03/29 02:41:51;;;;;;;9.75;6.75;;;;;;;5.98;58.18;95839.28;10321320;28;98145;-63
2022/03/29 02:46:54;;;;;;;9.73;7.07;;;;;;;6.04;57.62;95830.97;10325917;28;100394;-63
2022/03/29 02:51:57;;;;;;;10.45;7.30;;;;;;;6.06;58.30;95820.47;10317596;28;97044;-62
2022/03/29 02:57:01;;;;;;;9.88;7.38;;;;;;;5.93;58.88;95818.09;10328162;28;98241;-62
2022/03/29 03:02:05;;;;;;;11.35;7.95;;;;;;;5.77;59.18;95820.31;10319333;28;99413;-62
2022/03/29 03:07:08;;;;;;;12.63;8.20;;;;;;;5.81;58.90;95821.69;10328848;28;96993;-62
2022/03/29 03:12:12;;;;;;;12.40;7.60;;;;;;;5.92;58.24;95819.03;10323660;28;99846;-62
2022/03/29 03:17:15;;;;;;;12.10;7.55;;;;;;;6.09;56.45;95820.22;10323167;28;97610;-63
2022/03/29 03:22:18;;;;;;;14.35;8.50;;;;;;;6.13;57.00;95820.75;10317969;28;99447;-62
2022/03/29 03:27:23;;;;;;;10.85;7.75;;;;;;;6.01;57.70;95823.44;10325376;28;97818;-62
2022/03/29 03:32:25;;;;;;;12.07;8.13;;;;;;;6.06;56.94;95816.09;10319388;28;98620;-62
2022/03/29 03:37:28;;;;;;;11.35;7.63;;;;;;;6.27;56.53;95810.84;10319969;28;97758;-62
2022/03/29 03:42:32;;;;;;;11.18;7.95;;;;;;;6.30;57.37;95814.97;10317809;28;97078;-62
2022/03/29 03:47:36;;;;;;;9.85;6.85;;;;;;;6.26;57.06;95818.78;10328191;28;96878;-62
2022/03/29 03:52:39;;;;;;;13.27;7.88;;;;;;;6.21;57.03;95805.38;10336822;28;97052;-62
2022/03/29 03:57:43;;;;;;;12.82;7.97;;;;;;;6.11;57.15;95800.16;10327864;28;96856;-63
2022/03/29 04:02:46;;;;;;;11.60;7.97;;;;;;;6.07;56.89;95804.78;10327603;28;96893;-62
2022/03/29 04:07:49;;;;;;;13.90;8.45;;;;;;;6.15;56.84;95804.09;10331086;28;96972;-62
2022/03/29 04:12:53;;;;;;;11.90;7.60;;;;;;;6.29;56.14;95795.16;10321683;28;97204;-62
2022/03/29 04:17:57;;;;;;;9.48;7.38;;;;;;;6.35;55.66;95799.81;10329452;28;96855;-62
2022/03/29 04:23:00;;;;;;;9.93;7.70;;;;;;;6.25;56.77;95791.19;10324159;28;96797;-62
2022/03/29 04:28:05;;;;;;;10.82;7.55;;;;;;;5.95;57.59;95794.59;10324181;28;100031;-62
2022/03/29 04:33:08;;;;;;;10.90;7.53;;;;;;;5.86;58.26;95798.78;10328440;28;96864;-62
2022/03/29 04:38:11;;;;;;;16.15;8.40;;;;;;;5.70;59.21;95799.28;10328860;28;96951;-62
2022/03/29 04:43:15;;;;;;;12.15;8.05;;;;;;;5.74;58.64;95792.06;10324068;28;97072;-62
2022/03/29 04:48:18;;;;;;;12.02;8.15;;;;;;;5.73;58.51;95791.25;10311760;28;96927;-62
2022/03/29 04:53:21;;;;;;;9.43;7.55;;;;;;;5.66;58.56;95788.34;10322321;28;97026;-62
2022/03/29 04:58:26;;;;;;;11.32;8.23;;;;;;;5.66;57.88;95790.94;10320748;28;96827;-62
2022/03/29 05:03:29;;;;;;;;;;;;;;;5.61;57.84;95785.31;10325327;28;96983;-62
2022/03/29 05:08:32;;;;;;;11.55;8.63;;;;;;;5.53;58.93;95785.97;10318680;28;99453;-62
2022/03/29 05:13:36;;;;;;;12.48;10.00;;;;;;;5.17;60.85;95786.38;10314747;28;97776;-62
2022/03/29 05:18:39;;;;;;;14.43;8.98;;;;;;;4.85;61.96;95780.28;10314872;28;99151;-62
2022/03/29 05:23:42;;;;;;;14.23;8.95;;;;;;;4.96;61.66;95780.25;10325918;28;99411;-62
2022/03/29 05:28:46;;;;;;;16.30;9.23;;;;;;;5.14;60.94;95771.94;10327770;28;99222;-62
2022/03/29 05:33:49;;;;;;;15.68;8.20;;;;;;;5.28;60.23;95769.03;10317977;28;98215;-62
2022/03/29 05:38:52;;;;;;;15.05;8.45;;;;;;;5.31;59.84;95771.38;10334113;28;97017;-62
2022/03/29 05:43:56;;;;;;;12.48;8.00;;;;;;;5.34;60.25;95772.91;10329343;28;98304;-62
2022/03/29 05:48:59;;;;;;;14.95;8.85;;;;;;;5.36;59.87;95762.38;10324657;28;98666;-63
2022/03/29 05:54:04;;;;;;;11.80;8.40;;;;;;;5.38;60.55;95768.28;10322032;28;98371;-62
2022/03/29 05:59:08;;;;;;;12.97;8.43;;;;;;;5.38;60.32;95770.88;10333487;28;97872;-62
2022/03/29 06:04:11;;;;;;;15.23;8.60;;;;;;;5.48;60.07;95769.16;10320400;28;97221;-62
2022/03/29 06:09:14;;;;;;;13.57;9.10;;;;;;;5.61;60.12;95769.75;10325177;28;99271;-62
2022/03/29 06:14:18;;;;;;;10.25;8.00;;;;;;;5.66;60.25;95780.56;10315352;28;98436;-62
2022/03/29 06:19:22;;;;;;;13.63;8.45;;;;;;;5.86;59.13;95778.06;10318227;28;99137;-62
2022/03/29 06:24:26;;;;;;;14.50;8.25;;;;;;;5.91;59.10;95775.91;10318651;28;101237;-62
2022/03/29 06:29:31;;;;;;;13.03;8.80;;;;;;;5.88;59.50;95774.41;10320843;28;98532;-62
2022/03/29 06:34:34;;;;;;;12.17;9.30;;;;;;;6.13;59.21;95772.31;10324667;28;96955;-62
2022/03/29 06:39:37;;;;;;;17.63;10.30;;;;;;;6.37;58.08;95771.97;10321528;28;98714;-62
2022/03/29 06:44:41;;;;;;;12.73;9.48;;;;;;;6.51;58.38;95769.94;10323595;28;96888;-62
2022/03/29 06:49:44;;;;;;;13.77;8.98;;;;;;;6.73;57.76;95772.28;10322404;28;98395;-63
2022/03/29 06:54:47;;;;;;;17.00;10.98;;;;;;;6.94;57.35;95763.56;10316937;28;98597;-62
2022/03/29 06:59:51;;;;;;;13.88;9.65;;;;;;;7.07;57.50;95764.13;10316084;28;97322;-62
2022/03/29 07:04:55;;;;;;;12.00;9.10;;;;;;;7.13;57.61;95755.78;10322599;28;96990;-62
2022/03/29 07:15:21;;;;;;;13.07;9.93;;;;;;;7.78;57.07;95749.88;10323323;28;96896;-62
2022/03/29 07:20:24;;;;;;;;;;;;;;;8.10;55.88;95749.50;10317568;28;96901;-63
2022/03/29 07:25:31;;;;;;;15.70;10.00;;;;;;;8.35;55.62;95757.56;10342989;28;98236;-62
2022/03/29 07:30:38;;;;;;;15.75;10.57;;;;;;;8.60;55.73;95750.81;10323205;28;97661;-62
2022/03/29 07:35:40;;;;;;;15.73;11.23;;;;;;;8.66;56.36;95747.66;10328789;28;98269;-62
2022/03/29 07:40:45;;;;;;;20.17;13.13;;;;;;;8.74;56.20;95744.28;10328547;28;97097;-62
2022/03/29 07:45:50;;;;;;;20.10;12.52;;;;;;;8.72;54.81;95741.03;10324817;28;97876;-62
2022/03/29 07:50:53;;;;;;;20.67;12.05;;;;;;;8.92;54.57;95731.28;10325557;28;97585;-62
2022/03/29 07:55:56;;;;;;;20.00;13.13;;;;;;;9.19;54.57;95737.34;10321164;28;96787;-62
2022/03/29 08:01:00;;;;;;;15.63;12.50;;;;;;;9.42;54.25;95732.44;10324129;28;97574;-62
2022/03/29 08:06:04;;;;;;;27.33;15.77;;;;;;;9.61;53.92;95724.47;10330341;28;96970;-62
2022/03/29 08:11:08;;;;;;;23.45;15.88;;;;;;;9.76;53.57;95727.31;10324714;28;97649;-62
2022/03/29 08:16:14;;;;;;;19.92;16.17;;;;;;;10.16;51.95;95727.66;10329466;28;97033;-62
2022/03/29 08:26:37;;;;;;;21.15;17.13;;;;;;;10.55;50.00;95709.66;10313984;28;98557;-63
2022/03/29 08:31:42;;;;;;;21.02;16.20;;;;;;;10.91;49.11;95709.38;10327492;28;96853;-62
2022/03/29 08:36:46;;;;;;;18.00;13.93;;;;;;;11.20;48.39;95705.44;10326406;28;96904;-62
2022/03/29 08:41:53;;;;;;;16.07;12.17;;;;;;;11.35;47.22;95703.81;10327691;28;97315;-62
2022/03/29 08:46:58;;;;;;;20.75;12.70;;;;;;;11.49;47.00;95699.72;10329993;28;97070;-62
2022/03/29 08:52:01;;;;;;;16.50;12.18;;;;;;;11.67;47.13;95688.22;10333439;28;98245;-62
2022/03/29 08:57:05;;;;;;;14.52;10.20;;;;;;;12.00;46.88;95688.94;10335821;28;96908;-62
2022/03/29 09:02:15;;;;;;;13.38;9.70;;;;;;;12.24;46.04;95671.47;10333207;28;97826;-62
2022/03/29 09:07:20;;;;;;;15.55;9.35;;;;;;;12.57;45.33;95673.91;10336943;28;96919;-63
2022/03/29 09:12:23;;;;;;;18.30;8.80;;;;;;;13.02;44.52;95677.53;10320621;28;98531;-63
2022/03/29 09:17:30;;;;;;;12.40;8.18;;;;;;;13.42;42.70;95667.66;10333429;28;96945;-62
2022/03/29 09:22:36;;;;;;;13.00;7.80;;;;;;;13.45;42.81;95667.31;10331489;28;98099;-62
2022/03/29 09:27:54;;;;;;;10.73;7.25;;;;;;;13.56;41.82;95664.22;10323686;28;97391;-62
2022/03/29 09:33:02;;;;;;;11.10;7.68;;;;;;;13.80;41.03;95662.34;10323101;28;96723;-63
2022/03/29 09:38:21;;;;;;;12.20;7.60;;;;;;;14.20;41.12;95649.69;10333445;28;96880;-63
2022/03/29 09:43:26;;;;;;;11.77;7.25;;;;;;;14.63;40.44;95647.16;10309695;28;99977;-62
2022/03/29 09:48:31;;;;;;;;;;;;;;;15.06;40.79;95643.66;10320578;28;97005;-63
2022/03/29 09:53:38;;;;;;;9.82;7.18;;;;;;;15.40;39.48;95636.84;10321374;28;96812;-63
2022/03/29 09:58:42;;;;;;;9.88;7.28;;;;;;;15.82;39.02;95621.91;10307889;28;99943;-63
2022/03/29 10:03:47;;;;;;;11.60;7.47;;;;;;;16.02;38.13;95616.75;10327976;28;96863;-63
2022/03/29 10:14:15;;;;;;;10.45;7.25;;;;;;;16.40;36.30;95600.44;10333769;28;96764;-62
2022/03/29 10:19:20;;;;;;;9.30;7.13;;;;;;;16.39;35.78;95590.91;10331300;28;97328;-62
2022/03/29 10:24:23;;;;;;;7.75;6.88;;;;;;;16.62;35.24;95574.69;10331741;28;96928;-63
2022/03/29 10:29:27;;;;;;;10.57;6.75;;;;;;;16.88;34.00;95566.00;10329768;28;98214;-63
2022/03/29 10:34:37;;;;;;;11.73;6.68;;;;;;;16.87;34.74;95560.97;10331295;28;97908;-63
2022/03/29 10:39:46;;;;;;;10.45;6.80;;;;;;;16.85;33.86;95549.78;10326937;28;96889;-62
2022/03/29 10:44:59;;;;;;;9.98;6.75;;;;;;;16.66;32.95;95554.00;10305448;28;97009;-62
2022/03/29 10:50:56;;;;;;;10.27;6.93;;;;;;;16.63;33.41;95548.13;10316732;28;96979;-63
2022/03/29 10:56:24;;;;;;;11.10;7.43;;;;;;;16.84;33.20;95541.06;10332039;28;97226;-63
2022/03/29 11:01:27;;;;;;;12.20;6.78;;;;;;;16.88;32.40;95537.00;10316096;28;96981;-63
2022/03/29 11:06:32;;;;;;;11.57;7.35;;;;;;;16.86;32.13;95528.47;10332386;28;96993;-63
2022/03/29 11:11:40;;;;;;;11.98;6.80;;;;;;;16.90;32.70;95519.16;10312483;28;96827;-63
2022/03/29 11:16:43;;;;;;;13.63;6.57;;;;;;;16.83;31.67;95514.88;10305175;28;96838;-63
2022/03/29 11:21:48;;;;;;;9.73;6.07;;;;;;;16.76;31.52;95506.97;10318695;28;97086;-63
2022/03/29 11:26:59;;;;;;;12.60;6.50;;;;;;;16.69;30.94;95503.50;10322719;28;97768;-63
2022/03/29 11:32:03;;;;;;;15.75;6.93;;;;;;;16.61;30.99;95492.16;10331244;28;97809;-63
2022/03/29 11:37:07;;;;;;;13.63;6.43;;;;;;;16.49;30.91;95488.50;10328590;28;98419;-62
2022/03/29 11:42:10;;;;;;;14.13;6.32;;;;;;;16.63;30.25;95476.94;10328539;28;97094;-63
2022/03/29 11:47:13;;;;;;;16.60;6.97;;;;;;;16.61;30.71;95489.50;10332841;28;96806;-63
2022/03/29 11:52:18;;;;;;;13.80;6.13;;;;;;;16.70;30.08;95470.84;10328579;28;96771;-62
2022/03/29 11:57:23;;;;;;;15.23;6.47;;;;;;;16.99;30.15;95459.88;10321613;28;97002;-62
2022/03/29 12:02:28;;;;;;;14.63;6.47;;;;;;;17.15;29.89;95452.53;10328743;28;96852;-63
2022/03/29 12:07:40;;;;;;;10.45;6.03;;;;;;;17.23;29.53;95443.53;10306708;28;96970;-63
2022/03/29 12:12:51;;;;;;;13.93;6.20;;;;;;;17.26;29.22;95428.09;10308466;28;98699;-63
2022/03/29 12:18:40;;;;;;;13.75;6.63;;;;;;;17.33;29.43;95426.25;10327213;28;97842;-63
2022/03/29 12:23:27;;;;;;;17.13;6.63;;;;;;;17.30;28.77;95413.47;10312041;28;100986;-63
2022/03/29 12:28:31;;;;;;;15.32;6.40;;;;;;;17.27;29.09;95413.09;10341885;28;97222;-63
2022/03/29 12:33:35;;;;;;;10.68;6.18;;;;;;;17.23;29.01;95402.16;10320067;28;97094;-63
2022/03/29 12:38:48;;;;;;;14.43;6.40;;;;;;;17.24;28.97;95395.03;10339843;28;97040;-63
2022/03/29 12:43:54;;;;;;;13.32;6.00;;;;;;;17.45;28.79;95383.34;10332971;28;97632;-63
2022/03/29 12:48:58;;;;;;;12.45;6.53;;;;;;;17.62;28.80;95378.38;10342640;28;96938;-63
2022/03/29 12:54:04;;;;;;;11.95;6.30;;;;;;;18.12;28.20;95367.88;10334567;28;96841;-63
2022/03/29 12:59:28;;;;;;;12.98;6.32;;;;;;;18.33;27.90;95353.47;10330971;28;96915;-63
2022/03/29 13:04:39;;;;;;;17.35;6.88;;;;;;;18.43;28.31;95348.47;10334594;28;99329;-63
2022/03/29 13:09:59;;;;;;;12.30;6.07;;;;;;;17.89;28.77;95328.81;10330941;28;96894;-63
2022/03/29 13:15:42;;;;;;;13.18;6.10;;;;;;;18.20;28.44;95333.22;10324529;28;98121;-63
2022/03/29 13:20:45;;;;;;;12.20;6.00;;;;;;;18.35;27.95;95311.75;10333541;28;97065;-63
2022/03/29 13:25:50;;;;;;;12.25;6.70;;;;;;;18.05;27.82;95307.16;10336934;28;96929;-64
2022/03/29 13:30:53;;;;;;;13.10;7.28;;;;;;;18.19;28.28;95289.34;10332776;28;98142;-63
2022/03/29 13:35:56;;;;;;;11.90;6.45;;;;;;;18.12;28.00;95289.41;10332538;28;97868;-63
2022/03/29 13:41:00;;;;;;;14.38;6.57;;;;;;;18.27;27.65;95281.13;10334122;28;96750;-63
2022/03/29 13:46:05;;;;;;;15.23;7.13;;;;;;;18.40;27.51;95274.88;10332884;28;97076;-63
2022/03/29 13:51:28;;;;;;;10.50;6.65;;;;;;;18.48;27.86;95264.00;10332204;28;96947;-63
2022/03/29 13:56:32;;;;;;;12.18;6.60;;;;;;;18.32;27.85;95256.66;10334170;28;97199;-63
2022/03/29 14:01:35;;;;;;;11.88;7.13;;;;;;;18.32;28.15;95248.72;10333068;28;96920;-63
2022/03/29 14:06:39;;;;;;;16.55;7.07;;;;;;;18.36;27.96;95246.44;10317855;28;96812;-63
2022/03/29 14:11:43;;;;;;;13.60;6.55;;;;;;;18.82;27.04;95240.59;10332746;28;98122;-63
2022/03/29 14:16:46;;;;;;;17.92;7.18;;;;;;;18.81;27.26;95230.22;10334213;28;96938;-63
2022/03/29 14:21:50;;;;;;;15.25;7.30;;;;;;;19.03;27.72;95222.63;10330919;28;96947;-63
2022/03/29 14:26:55;;;;;;;12.23;6.47;;;;;;;19.09;27.68;95212.97;10330437;28;97107;-63
2022/03/29 14:32:02;;;;;;;14.60;7.03;;;;;;;19.19;27.32;95198.19;10333242;28;96786;-63
2022/03/29 14:37:05;;;;;;;12.52;6.30;;;;;;;18.84;27.51;95196.19;10328395;28;98501;-64
2022/03/29 14:42:10;;;;;;;13.80;6.25;;;;;;;18.51;28.69;95191.34;10332037;28;96983;-63
2022/03/29 14:47:13;;;;;;;16.30;7.22;;;;;;;18.59;28.63;95185.75;10315194;28;99022;-63
2022/03/29 14:52:18;;;;;;;11.65;6.93;;;;;;;18.62;28.37;95176.56;10330313;28;96889;-63
2022/03/29 14:57:22;;;;;;;15.68;7.43;;;;;;;18.40;27.85;95179.69;10324818;28;96723;-63
2022/03/29 15:02:25;;;;;;;16.40;7.22;;;;;;;18.21;28.65;95162.25;10331732;28;96961;-63
2022/03/29 15:07:29;;;;;;;14.32;6.45;;;;;;;17.90;28.71;95164.00;10329871;28;96921;-63
2022/03/29 15:12:33;;;;;;;17.92;7.20;;;;;;;17.73;28.47;95158.44;10329412;28;97454;-63
2022/03/29 15:17:36;;;;;;;22.70;6.35;;;;;;;17.50;28.51;95156.44;10327951;28;96894;-62
2022/03/29 15:22:39;;;;;;;15.93;6.40;;;;;;;17.14;28.26;95145.59;10329236;28;97057;-63
2022/03/29 15:27:44;;;;;;;23.33;7.00;;;;;;;16.91;28.68;95143.50;10329818;28;97204;-63
2022/03/29 15:32:47;;;;;;;;;;;;;;;17.06;28.37;95131.84;10327286;28;98034;-63
2022/03/29 15:37:50;;;;;;;15.35;6.93;;;;;;;17.27;28.48;95122.75;10338184;28;98169;-63
2022/03/29 15:42:55;;;;;;;16.10;6.07;;;;;;;17.38;28.41;95122.81;10321378;28;98640;-63
2022/03/29 15:47:58;;;;;;;16.95;7.32;;;;;;;17.41;28.83;95128.72;10320153;28;96854;-63
2022/03/29 15:53:03;;;;;;;16.95;6.88;;;;;;;17.32;28.88;95110.50;10330774;28;97005;-63
2022/03/29 15:58:08;;;;;;;17.92;7.10;;;;;;;17.27;29.21;95114.84;10312538;28;96993;-63
2022/03/29 16:03:31;;;;;;;16.75;7.63;;;;;;;17.10;29.33;95112.72;10312992;28;96955;-63
2022/03/29 16:08:34;;;;;;;18.63;6.97;;;;;;;16.95;29.77;95106.97;10311300;28;96848;-63
2022/03/29 16:13:39;;;;;;;16.35;7.30;;;;;;;16.88;29.71;95093.81;10316481;28;97059;-64
2022/03/29 16:18:42;;;;;;;16.20;7.50;;;;;;;16.87;30.36;95084.31;10327261;28;97123;-63
2022/03/29 16:23:45;;;;;;;16.75;7.07;;;;;;;16.84;30.30;95086.56;10322535;28;96947;-63
2022/03/29 16:28:49;;;;;;;17.08;7.25;;;;;;;16.80;30.49;95086.19;10330842;28;96987;-63
2022/03/29 16:33:53;;;;;;;18.50;7.30;;;;;;;16.70;30.50;95075.28;10329335;28;98042;-63
2022/03/29 16:38:56;;;;;;;13.47;6.83;;;;;;;16.62;31.21;95073.69;10321858;28;98474;-63
2022/03/29 16:44:00;;;;;;;17.60;7.10;;;;;;;16.44;31.05;95069.97;10306149;28;97395;-63
2022/03/29 16:49:04;;;;;;;17.95;7.25;;;;;;;16.27;31.26;95075.97;10327548;28;97013;-63
2022/03/29 16:54:07;;;;;;;17.02;7.35;;;;;;;16.25;31.70;95070.91;10328688;28;102313;-63
2022/03/29 16:59:12;;;;;;;17.30;7.95;;;;;;;16.14;31.81;95077.66;10313747;28;99101;-63
2022/03/29 17:04:15;;;;;;;14.98;7.00;;;;;;;15.99;31.87;95071.84;10309613;28;97834;-63
2022/03/29 17:09:18;;;;;;;16.98;7.35;;;;;;;15.86;32.29;95070.09;10310707;28;97814;-63
2022/03/29 17:14:23;;;;;;;13.75;6.85;;;;;;;15.73;32.26;95089.38;10335282;28;97172;-63
2022/03/29 17:19:28;;;;;;;14.77;6.85;;;;;;;15.60;32.89;95079.72;10316973;28;99338;-63
2022/03/29 17:24:31;;;;;;;19.80;7.53;;;;;;;15.47;33.04;95079.72;10324878;28;98642;-63
2022/03/29 17:29:35;;;;;;;17.17;6.78;;;;;;;15.37;32.90;95074.06;10328159;28;97688;-63
2022/03/29 17:34:38;;;;;;;16.52;7.63;;;;;;;15.25;33.03;95081.78;10332928;28;98423;-63
2022/03/29 17:39:41;;;;;;;14.52;6.68;;;;;;;15.07;33.45;95072.69;10330882;28;98517;-62
2022/03/29 17:44:45;;;;;;;15.05;7.45;;;;;;;14.91;33.69;95073.13;10325513;28;100304;-63
2022/03/29 17:49:49;;;;;;;13.98;7.22;;;;;;;14.82;33.76;95061.19;10320557;28;98369;-63
2022/03/29 17:54:52;;;;;;;16.15;7.20;;;;;;;14.77;34.52;95061.81;10331951;28;98492;-63
2022/03/29 17:59:56;;;;;;;14.52;6.90;;;;;;;14.64;34.36;95061.78;10329640;28;97893;-63
2022/03/29 18:04:59;;;;;;;13.05;6.97;;;;;;;14.50;34.58;95061.78;10329214;28;98333;-63
2022/03/29 18:10:03;;;;;;;15.10;6.60;;;;;;;14.45;35.36;95068.66;10328425;28;96925;-63
2022/03/29 18:15:09;;;;;;;16.47;7.53;;;;;;;14.37;34.89;95059.97;10329529;28;96928;-63
2022/03/29 18:20:14;;;;;;;13.60;6.72;;;;;;;14.35;35.67;95059.34;10330754;28;97030;-63
2022/03/29 18:25:17;;;;;;;14.85;6.82;;;;;;;14.27;35.67;95062.13;10329328;28;96752;-63
2022/03/29 18:30:24;;;;;;;14.48;7.20;;;;;;;14.23;35.20;95074.06;10328455;28;96822;-63
2022/03/29 18:35:26;;;;;;;16.52;8.32;;;;;;;14.16;35.50;95078.47;10332507;28;97270;-63
2022/03/29 18:40:29;;;;;;;14.07;7.78;;;;;;;14.09;36.38;95081.09;10330892;28;96957;-63
2022/03/29 18:45:34;;;;;;;16.48;8.13;;;;;;;14.02;36.50;95082.91;10335531;28;97000;-63
2022/03/29 18:50:37;;;;;;;16.40;7.93;;;;;;;13.96;36.11;95076.59;10327744;28;97129;-63
2022/03/29 18:55:40;;;;;;;19.45;9.52;;;;;;;13.88;36.59;95079.41;10330285;28;98307;-63
2022/03/29 19:00:44;;;;;;;17.15;8.35;;;;;;;13.78;37.19;95081.59;10328690;28;96938;-64
2022/03/29 19:05:48;;;;;;;26.65;14.15;;;;;;;13.75;36.73;95089.84;10329052;28;103003;-63
2022/03/29 19:10:51;;;;;;;14.93;7.95;;;;;;;13.71;37.03;95084.19;10335381;28;98034;-63
2022/03/29 19:15:55;;;;;;;16.20;7.70;;;;;;;13.69;37.41;95085.38;10327239;28;98827;-63
2022/03/29 19:20:59;;;;;;;14.57;8.50;;;;;;;13.68;37.83;95086.38;10327310;28;96910;-61
2022/03/29 19:26:01;;;;;;;17.50;8.00;;;;;;;13.61;37.57;95102.09;10331875;28;97098;-61
2022/03/29 19:31:06;;;;;;;12.73;6.97;;;;;;;13.57;38.02;95106.94;10328158;28;96989;-62
2022/03/29 19:36:09;;;;;;;12.30;6.80;;;;;;;13.50;38.48;95108.72;10327499;28;98610;-62
2022/03/29 19:41:12;;;;;;;19.60;7.25;;;;;;;13.46;38.57;95128.44;10334422;28;97385;-62
2022/03/29 19:46:25;;;;;;;15.68;7.60;;;;;;;13.36;38.60;95118.31;10331476;28;96964;-62
2022/03/29 19:51:28;;;;;;;14.65;6.63;;;;;;;13.26;39.02;95109.19;10327839;28;100792;-62
2022/03/29 19:56:30;;;;;;;16.33;6.72;;;;;;;13.22;38.98;95111.34;10327954;28;97002;-62
2022/03/29 20:01:35;;;;;;;16.60;7.60;;;;;;;13.20;38.96;95105.50;10332786;28;96849;-63
2022/03/29 20:06:38;;;;;;;13.85;6.38;;;;;;;13.18;38.90;95100.44;10329021;28;100207;-62
2022/03/29 20:11:40;;;;;;;15.07;6.10;;;;;;;13.12;39.29;95098.59;10325481;28;96867;-63
2022/03/29 20:16:46;;;;;;;14.57;6.00;;;;;;;13.07;39.72;95103.59;10326640;28;97024;-62
2022/03/29 20:21:51;;;;;;;16.73;6.55;;;;;;;13.04;39.79;95110.03;10326761;28;96995;-63
2022/03/29 20:26:54;;;;;;;13.13;5.75;;;;;;;13.04;39.65;95103.97;10325141;28;97536;-63
2022/03/29 20:31:58;;;;;;;14.80;6.07;;;;;;;13.00;39.98;95105.38;10326969;28;98084;-63
2022/03/29 20:37:02;;;;;;;13.63;6.03;;;;;;;12.97;39.81;95095.25;10324411;28;97527;-62
2022/03/29 20:42:05;;;;;;;20.15;10.32;;;;;;;12.97;40.16;95095.25;10312132;28;97661;-62
2022/03/29 20:47:09;;;;;;;13.00;6.28;;;;;;;12.93;40.50;95101.88;10323458;28;103634;-60
2022/03/29 20:52:16;;;;;;;13.75;6.30;;;;;;;12.87;40.94;95098.16;10323919;28;98843;-63
2022/03/29 20:57:20;;;;;;;15.07;5.63;;;;;;;12.83;41.17;95097.72;10318913;28;97027;-63
2022/03/29 21:02:24;;;;;;;15.20;6.40;;;;;;;12.79;41.54;95101.75;10353574;28;97882;-62
2022/03/29 21:07:27;;;;;;;16.08;6.68;;;;;;;12.73;41.82;95096.44;10317835;28;97880;-64
2022/03/29 21:12:30;;;;;;;16.13;5.55;;;;;;;12.64;42.60;95103.63;10323345;28;100917;-62
2022/03/29 21:17:35;;;;;;;16.95;5.88;;;;;;;12.58;43.25;95101.75;10321234;28;98496;-62
2022/03/29 21:22:38;;;;;;;12.68;5.07;;;;;;;12.53;43.08;95094.47;10317659;28;98692;-62
2022/03/29 21:27:41;;;;;;;16.63;5.57;;;;;;;12.51;43.84;95093.84;10316552;28;96955;-63
2022/03/29 21:32:45;;;;;;;20.05;5.57;;;;;;;12.46;44.39;95083.94;10316170;28;96908;-62
2022/03/29 21:37:48;;;;;;;19.30;5.33;;;;;;;12.44;44.69;95082.47;10317705;28;102317;-63
2022/03/29 21:42:51;;;;;;;13.63;4.70;;;;;;;12.42;44.97;95101.03;10324871;28;98205;-62
2022/03/29 21:47:55;;;;;;;16.55;5.10;;;;;;;12.36;45.25;95093.09;10315801;28;96939;-63
2022/03/29 21:52:59;;;;;;;13.57;5.30;;;;;;;12.35;45.35;95091.47;10318420;28;98716;-62
2022/03/29 21:58:06;;;;;;;17.80;5.50;;;;;;;12.28;45.46;95089.59;10317914;28;98541;-62
2022/03/29 22:03:11;;;;;;;14.93;5.03;;;;;;;12.25;45.68;95089.19;10328526;28;99108;-62
2022/03/29 22:08:15;;;;;;;12.85;4.68;;;;;;;12.25;45.60;95094.41;10331592;28;96807;-63
2022/03/29 22:13:18;;;;;;;14.20;4.80;;;;;;;12.20;45.82;95079.25;10322518;28;97244;-63
2022/03/29 22:18:22;;;;;;;16.70;5.20;;;;;;;12.20;45.66;95086.31;10318916;28;98677;-62
2022/03/29 22:23:25;;;;;;;17.92;5.28;;;;;;;12.15;45.80;95079.00;10328987;28;98569;-63
2022/03/29 22:28:29;;;;;;;12.23;4.90;;;;;;;12.11;46.07;95075.13;10321453;28;100704;-63
2022/03/29 22:33:35;;;;;;;16.25;4.68;;;;;;;12.02;46.28;95078.84;10315514;28;97894;-63
2022/03/29 22:38:38;;;;;;;12.15;4.35;;;;;;;12.00;46.09;95071.19;10330222;28;97301;-62
2022/03/29 22:43:41;;;;;;;16.45;5.50;;;;;;;11.98;46.04;95070.56;10331747;28;97118;-62
2022/03/29 22:48:45;;;;;;;16.10;4.40;;;;;;;11.93;46.30;95070.28;10310410;28;99032;-62
2022/03/29 22:53:48;;;;;;;14.73;4.67;;;;;;;11.89;46.06;95069.06;10318959;28;97176;-63
2022/03/29 22:58:51;;;;;;;11.98;4.40;;;;;;;11.84;46.35;95066.19;10312845;28;96930;-63
2022/03/29 23:03:55;;;;;;;15.02;4.82;;;;;;;11.80;46.05;95054.44;10324938;28;97165;-62
2022/03/29 23:08:58;;;;;;;17.53;4.90;;;;;;;11.75;46.14;95044.53;10316486;28;96988;-63
2022/03/29 23:14:01;;;;;;;11.40;4.20;;;;;;;11.72;45.66;95032.63;10325489;28;96713;-62
2022/03/29 23:19:05;;;;;;;11.88;3.85;;;;;;;11.72;45.66;95031.81;10318489;28;97055;-63
2022/03/29 23:24:08;;;;;;;11.40;4.07;;;;;;;11.68;45.33;95028.78;10306960;28;96942;-62
2022/03/29 23:29:11;;;;;;;15.27;5.07;;;;;;;11.68;45.39;95026.16;10315680;28;99351;-63
2022/03/29 23:34:16;;;;;;;15.15;5.25;;;;;;;11.62;45.74;95018.22;10322359;28;98768;-63
2022/03/29 23:39:19;;;;;;;13.77;4.40;;;;;;;11.53;45.72;95022.75;10321931;28;100566;-63
2022/03/29 23:44:22;;;;;;;9.48;4.15;;;;;;;11.48;46.28;95015.44;10317931;28;97161;-63
2022/03/29 23:49:26;;;;;;;14.60;4.78;;;;;;;11.44;46.45;95013.41;10329079;28;97282;-62
2022/03/29 23:54:31;;;;;;;16.17;4.30;;;;;;;11.40;46.13;95017.34;10331710;28;96938;-63